Pagrindinis puslapis
METAR-TAF:

METAR-TAF

Oro uostai :

Marshall, Aliaska, Jungtinės Amerikos Valstijos

platuma: 61-51-51N, ilguma: 162-01-34W, Aukštis: 31 m

Dabartinis oras

Ataskaita buvo paskelbta 41 minutes, ne 06:02 UTC
Vėjas 10 kt iš Rytų/Šiaurės Rytų
Temperatūra -17°C
Drėgmė 65%
Slėgis 1016 hPa
Matomumas: 16.1 km
Giedras dangus

METAR: PADM 280602Z AUTO 07010KT 10SM CLR M17/M22 A3000 RMK AO2 SLP168 T11721217 11128 21189 53015 FZRANO

Laikas: 21:43 (06:43 UTC)


TAF: trūkstamas

Orai ataskaitas ir orų prognozės (METAR, TAF).

turimą stotys yra geltonos ir raudonos taškus žemėlapyje.

Perkelti pele per norėdami pamatyti stoties vardą.

Tada spustelėkite, norėdami matyti oro stebėjimo ir prognozės.

Norėdami pakeisti žemėlapį: spustelėkite ant žalios mygtukų su juodo kryžiaus žemyn,; žalią mygtuką su brūkšneliu, jei norite nutolinti; arba žalių rodyklių gretimoms žemėlapius.


METAR-TAF: